sensor_id;sensor_type;location;lat;lon;timestamp;P1;durP1;ratioP1;P2;durP2;ratioP2
35530;SDS011;21637;53.352;-6.356;2023-08-07T00:00:41;6.38;;;2.50;;
35530;SDS011;21637;53.352;-6.356;2023-08-07T00:03:07;7.15;;;2.75;;
35530;SDS011;21637;53.352;-6.356;2023-08-07T00:05:33;6.57;;;2.55;;
35530;SDS011;21637;53.352;-6.356;2023-08-07T00:07:58;5.47;;;2.30;;
35530;SDS011;21637;53.352;-6.356;2023-08-07T00:10:25;4.68;;;2.92;;
35530;SDS011;21637;53.352;-6.356;2023-08-07T00:12:51;12.43;;;3.70;;
35530;SDS011;21637;53.352;-6.356;2023-08-07T00:15:16;8.25;;;3.05;;
35530;SDS011;21637;53.352;-6.356;2023-08-07T00:17:42;7.78;;;3.22;;
35530;SDS011;21637;53.352;-6.356;2023-08-07T00:20:08;8.10;;;3.60;;
35530;SDS011;21637;53.352;-6.356;2023-08-07T00:22:34;7.88;;;3.55;;
35530;SDS011;21637;53.352;-6.356;2023-08-07T00:24:59;11.02;;;3.92;;
35530;SDS011;21637;53.352;-6.356;2023-08-07T00:27:25;5.85;;;3.38;;
35530;SDS011;21637;53.352;-6.356;2023-08-07T00:29:51;14.10;;;2.80;;
35530;SDS011;21637;53.352;-6.356;2023-08-07T00:32:17;7.43;;;3.03;;
35530;SDS011;21637;53.352;-6.356;2023-08-07T00:34:42;4.88;;;2.50;;
35530;SDS011;21637;53.352;-6.356;2023-08-07T00:37:08;6.15;;;2.60;;
35530;SDS011;21637;53.352;-6.356;2023-08-07T00:39:34;7.05;;;2.50;;
35530;SDS011;21637;53.352;-6.356;2023-08-07T00:41:59;6.65;;;2.42;;
35530;SDS011;21637;53.352;-6.356;2023-08-07T00:44:25;6.35;;;2.10;;
35530;SDS011;21637;53.352;-6.356;2023-08-07T00:46:51;6.88;;;2.08;;
35530;SDS011;21637;53.352;-6.356;2023-08-07T00:49:17;5.53;;;1.90;;
35530;SDS011;21637;53.352;-6.356;2023-08-07T00:51:45;7.32;;;2.20;;
35530;SDS011;21637;53.352;-6.356;2023-08-07T00:54:11;7.38;;;1.90;;
35530;SDS011;21637;53.352;-6.356;2023-08-07T00:56:43;4.63;;;2.50;;
35530;SDS011;21637;53.352;-6.356;2023-08-07T00:59:09;7.35;;;3.08;;
35530;SDS011;21637;53.352;-6.356;2023-08-07T01:01:35;5.22;;;2.30;;
35530;SDS011;21637;53.352;-6.356;2023-08-07T01:04:01;6.25;;;3.00;;
35530;SDS011;21637;53.352;-6.356;2023-08-07T01:06:27;7.13;;;2.35;;
35530;SDS011;21637;53.352;-6.356;2023-08-07T01:08:53;7.68;;;2.63;;
35530;SDS011;21637;53.352;-6.356;2023-08-07T01:11:24;5.95;;;2.30;;
35530;SDS011;21637;53.352;-6.356;2023-08-07T01:19:09;7.25;;;2.28;;
35530;SDS011;21637;53.352;-6.356;2023-08-07T01:22:05;3.35;;;1.77;;
35530;SDS011;21637;53.352;-6.356;2023-08-07T01:24:38;3.92;;;2.00;;
35530;SDS011;21637;53.352;-6.356;2023-08-07T01:32:49;7.97;;;2.28;;
35530;SDS011;21637;53.352;-6.356;2023-08-07T01:35:34;6.50;;;1.85;;
35530;SDS011;21637;53.352;-6.356;2023-08-07T01:38:04;4.85;;;2.40;;
35530;SDS011;21637;53.352;-6.356;2023-08-07T01:40:30;6.13;;;2.22;;
35530;SDS011;21637;53.352;-6.356;2023-08-07T01:42:57;3.83;;;2.10;;
35530;SDS011;21637;53.352;-6.356;2023-08-07T01:45:24;7.28;;;2.20;;
35530;SDS011;21637;53.352;-6.356;2023-08-07T01:47:51;8.15;;;2.60;;
35530;SDS011;21637;53.352;-6.356;2023-08-07T01:50:17;5.38;;;2.25;;
35530;SDS011;21637;53.352;-6.356;2023-08-07T01:52:44;6.45;;;2.38;;
35530;SDS011;21637;53.352;-6.356;2023-08-07T01:55:11;4.75;;;2.00;;
35530;SDS011;21637;53.352;-6.356;2023-08-07T01:57:38;4.32;;;2.72;;
35530;SDS011;21637;53.352;-6.356;2023-08-07T02:00:04;4.15;;;1.90;;
35530;SDS011;21637;53.352;-6.356;2023-08-07T02:02:30;5.43;;;2.20;;
35530;SDS011;21637;53.352;-6.356;2023-08-07T02:04:56;6.18;;;2.38;;
35530;SDS011;21637;53.352;-6.356;2023-08-07T02:07:22;7.20;;;2.80;;
35530;SDS011;21637;53.352;-6.356;2023-08-07T02:09:47;6.60;;;2.28;;
35530;SDS011;21637;53.352;-6.356;2023-08-07T02:12:13;5.20;;;2.13;;
35530;SDS011;21637;53.352;-6.356;2023-08-07T02:14:39;6.07;;;2.22;;
35530;SDS011;21637;53.352;-6.356;2023-08-07T02:17:04;6.18;;;2.63;;
35530;SDS011;21637;53.352;-6.356;2023-08-07T02:19:30;7.22;;;2.10;;
35530;SDS011;21637;53.352;-6.356;2023-08-07T02:21:57;5.38;;;3.10;;
35530;SDS011;21637;53.352;-6.356;2023-08-07T02:24:22;7.82;;;2.60;;
35530;SDS011;21637;53.352;-6.356;2023-08-07T02:26:48;7.15;;;2.42;;
35530;SDS011;21637;53.352;-6.356;2023-08-07T02:29:14;9.85;;;3.00;;
35530;SDS011;21637;53.352;-6.356;2023-08-07T02:31:39;4.30;;;2.20;;
35530;SDS011;21637;53.352;-6.356;2023-08-07T02:34:05;4.88;;;2.28;;
35530;SDS011;21637;53.352;-6.356;2023-08-07T02:36:31;4.70;;;2.63;;
35530;SDS011;21637;53.352;-6.356;2023-08-07T02:38:57;2.97;;;2.50;;
35530;SDS011;21637;53.352;-6.356;2023-08-07T02:41:22;7.82;;;2.90;;
35530;SDS011;21637;53.352;-6.356;2023-08-07T02:43:48;6.63;;;2.63;;
35530;SDS011;21637;53.352;-6.356;2023-08-07T02:46:14;7.03;;;2.58;;
35530;SDS011;21637;53.352;-6.356;2023-08-07T02:48:39;7.30;;;3.10;;
35530;SDS011;21637;53.352;-6.356;2023-08-07T02:51:05;5.47;;;2.63;;
35530;SDS011;21637;53.352;-6.356;2023-08-07T02:53:31;7.07;;;2.75;;
35530;SDS011;21637;53.352;-6.356;2023-08-07T02:55:57;5.38;;;3.15;;
35530;SDS011;21637;53.352;-6.356;2023-08-07T02:58:22;9.55;;;2.95;;
35530;SDS011;21637;53.352;-6.356;2023-08-07T03:00:48;8.70;;;2.60;;
35530;SDS011;21637;53.352;-6.356;2023-08-07T03:03:14;6.70;;;2.75;;
35530;SDS011;21637;53.352;-6.356;2023-08-07T03:05:47;6.03;;;2.45;;
35530;SDS011;21637;53.352;-6.356;2023-08-07T03:08:16;3.30;;;2.40;;
35530;SDS011;21637;53.352;-6.356;2023-08-07T03:10:42;7.38;;;2.85;;
35530;SDS011;21637;53.352;-6.356;2023-08-07T03:15:40;4.93;;;2.67;;
35530;SDS011;21637;53.352;-6.356;2023-08-07T03:18:06;6.28;;;2.55;;
35530;SDS011;21637;53.352;-6.356;2023-08-07T03:20:32;5.40;;;2.70;;
35530;SDS011;21637;53.352;-6.356;2023-08-07T03:22:57;6.25;;;2.50;;
35530;SDS011;21637;53.352;-6.356;2023-08-07T03:25:23;6.78;;;2.60;;
35530;SDS011;21637;53.352;-6.356;2023-08-07T03:27:49;6.00;;;2.70;;
35530;SDS011;21637;53.352;-6.356;2023-08-07T03:30:14;7.68;;;3.00;;
35530;SDS011;21637;53.352;-6.356;2023-08-07T03:32:40;5.20;;;3.50;;
35530;SDS011;21637;53.352;-6.356;2023-08-07T03:35:07;7.20;;;3.40;;
35530;SDS011;21637;53.352;-6.356;2023-08-07T03:37:32;6.47;;;2.72;;
35530;SDS011;21637;53.352;-6.356;2023-08-07T03:39:58;6.18;;;2.58;;
35530;SDS011;21637;53.352;-6.356;2023-08-07T03:42:24;3.95;;;2.67;;
35530;SDS011;21637;53.352;-6.356;2023-08-07T03:44:49;6.20;;;2.40;;
35530;SDS011;21637;53.352;-6.356;2023-08-07T03:47:15;7.88;;;2.60;;
35530;SDS011;21637;53.352;-6.356;2023-08-07T03:49:41;8.00;;;3.00;;
35530;SDS011;21637;53.352;-6.356;2023-08-07T03:52:07;3.72;;;2.58;;
35530;SDS011;21637;53.352;-6.356;2023-08-07T03:54:32;6.70;;;2.75;;
35530;SDS011;21637;53.352;-6.356;2023-08-07T03:56:58;7.15;;;2.42;;
35530;SDS011;21637;53.352;-6.356;2023-08-07T03:59:24;5.95;;;3.05;;
35530;SDS011;21637;53.352;-6.356;2023-08-07T04:01:49;4.93;;;2.60;;
35530;SDS011;21637;53.352;-6.356;2023-08-07T04:04:15;12.15;;;2.63;;
35530;SDS011;21637;53.352;-6.356;2023-08-07T04:06:41;5.10;;;2.47;;
35530;SDS011;21637;53.352;-6.356;2023-08-07T04:09:07;4.90;;;2.65;;
35530;SDS011;21637;53.352;-6.356;2023-08-07T04:11:35;9.07;;;2.55;;
35530;SDS011;21637;53.352;-6.356;2023-08-07T04:14:01;4.15;;;2.20;;
35530;SDS011;21637;53.352;-6.356;2023-08-07T04:16:27;7.15;;;2.40;;
35530;SDS011;21637;53.352;-6.356;2023-08-07T04:18:52;5.95;;;2.20;;
35530;SDS011;21637;53.352;-6.356;2023-08-07T04:21:18;6.13;;;2.28;;
35530;SDS011;21637;53.352;-6.356;2023-08-07T04:23:44;3.55;;;2.13;;
35530;SDS011;21637;53.352;-6.356;2023-08-07T04:26:10;6.18;;;2.35;;
35530;SDS011;21637;53.352;-6.356;2023-08-07T04:28:35;2.90;;;2.00;;
35530;SDS011;21637;53.352;-6.356;2023-08-07T04:31:01;6.47;;;2.20;;
35530;SDS011;21637;53.352;-6.356;2023-08-07T04:33:27;6.65;;;2.65;;
35530;SDS011;21637;53.352;-6.356;2023-08-07T04:35:53;7.15;;;2.10;;
35530;SDS011;21637;53.352;-6.356;2023-08-07T04:38:19;3.35;;;1.95;;
35530;SDS011;21637;53.352;-6.356;2023-08-07T04:40:45;5.25;;;2.25;;
35530;SDS011;21637;53.352;-6.356;2023-08-07T04:43:12;5.43;;;2.00;;
35530;SDS011;21637;53.352;-6.356;2023-08-07T04:45:38;6.05;;;1.88;;
35530;SDS011;21637;53.352;-6.356;2023-08-07T04:48:05;4.53;;;1.75;;
35530;SDS011;21637;53.352;-6.356;2023-08-07T04:50:32;4.15;;;1.73;;
35530;SDS011;21637;53.352;-6.356;2023-08-07T04:52:57;5.60;;;1.70;;
35530;SDS011;21637;53.352;-6.356;2023-08-07T04:55:23;4.80;;;1.85;;
35530;SDS011;21637;53.352;-6.356;2023-08-07T04:57:49;6.30;;;2.22;;
35530;SDS011;21637;53.352;-6.356;2023-08-07T05:00:16;3.25;;;1.65;;
35530;SDS011;21637;53.352;-6.356;2023-08-07T05:02:42;5.38;;;1.65;;
35530;SDS011;21637;53.352;-6.356;2023-08-07T05:05:08;2.00;;;1.70;;
35530;SDS011;21637;53.352;-6.356;2023-08-07T05:07:34;4.47;;;1.80;;
35530;SDS011;21637;53.352;-6.356;2023-08-07T05:10:03;6.35;;;1.60;;
35530;SDS011;21637;53.352;-6.356;2023-08-07T05:12:29;3.15;;;1.77;;
35530;SDS011;21637;53.352;-6.356;2023-08-07T05:14:55;7.00;;;1.88;;
35530;SDS011;21637;53.352;-6.356;2023-08-07T05:17:21;2.67;;;1.42;;
35530;SDS011;21637;53.352;-6.356;2023-08-07T05:19:47;6.47;;;1.70;;
35530;SDS011;21637;53.352;-6.356;2023-08-07T05:22:13;4.57;;;1.50;;
35530;SDS011;21637;53.352;-6.356;2023-08-07T05:24:38;4.05;;;1.63;;
35530;SDS011;21637;53.352;-6.356;2023-08-07T05:27:05;6.07;;;1.90;;
35530;SDS011;21637;53.352;-6.356;2023-08-07T05:29:33;5.90;;;1.77;;
35530;SDS011;21637;53.352;-6.356;2023-08-07T05:31:59;5.97;;;1.75;;
35530;SDS011;21637;53.352;-6.356;2023-08-07T05:34:25;5.03;;;1.67;;
35530;SDS011;21637;53.352;-6.356;2023-08-07T05:36:51;3.88;;;2.42;;
35530;SDS011;21637;53.352;-6.356;2023-08-07T05:39:16;4.50;;;1.63;;
35530;SDS011;21637;53.352;-6.356;2023-08-07T05:41:42;4.43;;;1.42;;
35530;SDS011;21637;53.352;-6.356;2023-08-07T05:44:08;3.92;;;1.60;;
35530;SDS011;21637;53.352;-6.356;2023-08-07T05:46:33;3.53;;;1.80;;
35530;SDS011;21637;53.352;-6.356;2023-08-07T05:48:59;3.97;;;1.90;;
35530;SDS011;21637;53.352;-6.356;2023-08-07T05:51:25;3.80;;;1.80;;
35530;SDS011;21637;53.352;-6.356;2023-08-07T05:53:50;4.55;;;1.50;;
35530;SDS011;21637;53.352;-6.356;2023-08-07T05:56:16;5.10;;;1.60;;
35530;SDS011;21637;53.352;-6.356;2023-08-07T05:58:43;5.40;;;1.98;;
35530;SDS011;21637;53.352;-6.356;2023-08-07T06:01:08;3.63;;;1.40;;
35530;SDS011;21637;53.352;-6.356;2023-08-07T06:03:34;3.75;;;1.70;;
35530;SDS011;21637;53.352;-6.356;2023-08-07T06:06:00;4.30;;;1.92;;
35530;SDS011;21637;53.352;-6.356;2023-08-07T06:08:25;3.60;;;1.30;;
35530;SDS011;21637;53.352;-6.356;2023-08-07T06:10:51;2.85;;;1.55;;
35530;SDS011;21637;53.352;-6.356;2023-08-07T06:13:17;3.22;;;1.40;;
35530;SDS011;21637;53.352;-6.356;2023-08-07T06:15:42;2.15;;;1.33;;
35530;SDS011;21637;53.352;-6.356;2023-08-07T06:18:08;8.55;;;1.42;;
35530;SDS011;21637;53.352;-6.356;2023-08-07T06:20:34;4.03;;;1.48;;
35530;SDS011;21637;53.352;-6.356;2023-08-07T06:23:00;5.43;;;1.80;;
35530;SDS011;21637;53.352;-6.356;2023-08-07T06:25:26;3.65;;;1.42;;
35530;SDS011;21637;53.352;-6.356;2023-08-07T06:27:52;6.18;;;1.50;;
35530;SDS011;21637;53.352;-6.356;2023-08-07T06:30:18;3.30;;;1.50;;
35530;SDS011;21637;53.352;-6.356;2023-08-07T06:32:44;2.70;;;1.30;;
35530;SDS011;21637;53.352;-6.356;2023-08-07T06:37:54;1.40;;;1.10;;
35530;SDS011;21637;53.352;-6.356;2023-08-07T06:40:20;2.35;;;1.50;;
35530;SDS011;21637;53.352;-6.356;2023-08-07T06:42:45;5.28;;;1.48;;
35530;SDS011;21637;53.352;-6.356;2023-08-07T06:45:11;3.33;;;1.20;;
35530;SDS011;21637;53.352;-6.356;2023-08-07T06:47:37;4.60;;;1.25;;
35530;SDS011;21637;53.352;-6.356;2023-08-07T06:50:02;3.05;;;1.25;;
35530;SDS011;21637;53.352;-6.356;2023-08-07T06:52:28;1.83;;;1.20;;
35530;SDS011;21637;53.352;-6.356;2023-08-07T06:54:54;4.95;;;1.38;;
35530;SDS011;21637;53.352;-6.356;2023-08-07T06:57:20;5.13;;;1.55;;
35530;SDS011;21637;53.352;-6.356;2023-08-07T06:59:45;2.42;;;1.02;;
35530;SDS011;21637;53.352;-6.356;2023-08-07T07:02:11;2.30;;;1.25;;
35530;SDS011;21637;53.352;-6.356;2023-08-07T07:04:37;3.80;;;1.30;;
35530;SDS011;21637;53.352;-6.356;2023-08-07T07:07:02;2.85;;;1.33;;
35530;SDS011;21637;53.352;-6.356;2023-08-07T07:09:28;2.35;;;1.25;;
35530;SDS011;21637;53.352;-6.356;2023-08-07T07:11:54;2.40;;;1.15;;
35530;SDS011;21637;53.352;-6.356;2023-08-07T07:14:20;3.25;;;1.42;;
35530;SDS011;21637;53.352;-6.356;2023-08-07T07:16:46;2.92;;;1.00;;
35530;SDS011;21637;53.352;-6.356;2023-08-07T07:19:12;2.78;;;1.10;;
35530;SDS011;21637;53.352;-6.356;2023-08-07T07:21:38;3.85;;;1.58;;
35530;SDS011;21637;53.352;-6.356;2023-08-07T07:24:04;2.85;;;1.35;;
35530;SDS011;21637;53.352;-6.356;2023-08-07T07:26:30;2.97;;;1.13;;
35530;SDS011;21637;53.352;-6.356;2023-08-07T07:28:55;2.53;;;1.30;;
35530;SDS011;21637;53.352;-6.356;2023-08-07T07:31:21;2.42;;;1.30;;
35530;SDS011;21637;53.352;-6.356;2023-08-07T07:33:47;2.75;;;1.00;;
35530;SDS011;21637;53.352;-6.356;2023-08-07T07:36:15;4.38;;;1.27;;
35530;SDS011;21637;53.352;-6.356;2023-08-07T07:38:42;2.50;;;1.10;;
35530;SDS011;21637;53.352;-6.356;2023-08-07T07:41:08;2.72;;;1.30;;
35530;SDS011;21637;53.352;-6.356;2023-08-07T07:43:36;2.50;;;1.20;;
35530;SDS011;21637;53.352;-6.356;2023-08-07T07:46:02;4.00;;;1.23;;
35530;SDS011;21637;53.352;-6.356;2023-08-07T07:48:28;2.40;;;1.15;;
35530;SDS011;21637;53.352;-6.356;2023-08-07T07:51:00;3.55;;;1.13;;
35530;SDS011;21637;53.352;-6.356;2023-08-07T07:53:29;5.88;;;0.90;;
35530;SDS011;21637;53.352;-6.356;2023-08-07T07:55:55;7.90;;;1.30;;
35530;SDS011;21637;53.352;-6.356;2023-08-07T07:58:21;4.60;;;1.30;;
35530;SDS011;21637;53.352;-6.356;2023-08-07T08:00:47;2.03;;;1.23;;
35530;SDS011;21637;53.352;-6.356;2023-08-07T08:03:13;5.25;;;1.45;;
35530;SDS011;21637;53.352;-6.356;2023-08-07T08:05:39;2.35;;;1.40;;
35530;SDS011;21637;53.352;-6.356;2023-08-07T08:08:05;3.90;;;1.30;;
35530;SDS011;21637;53.352;-6.356;2023-08-07T08:10:35;2.38;;;0.95;;
35530;SDS011;21637;53.352;-6.356;2023-08-07T08:13:01;4.25;;;2.15;;
35530;SDS011;21637;53.352;-6.356;2023-08-07T08:15:28;3.80;;;1.13;;
35530;SDS011;21637;53.352;-6.356;2023-08-07T08:17:54;2.13;;;0.88;;
35530;SDS011;21637;53.352;-6.356;2023-08-07T08:20:20;2.60;;;1.10;;
35530;SDS011;21637;53.352;-6.356;2023-08-07T08:22:46;2.65;;;1.30;;
35530;SDS011;21637;53.352;-6.356;2023-08-07T08:25:12;2.78;;;1.00;;
35530;SDS011;21637;53.352;-6.356;2023-08-07T08:27:38;2.20;;;0.75;;
35530;SDS011;21637;53.352;-6.356;2023-08-07T08:30:05;1.83;;;0.93;;
35530;SDS011;21637;53.352;-6.356;2023-08-07T08:32:31;3.22;;;0.90;;
35530;SDS011;21637;53.352;-6.356;2023-08-07T08:34:58;2.88;;;0.90;;
35530;SDS011;21637;53.352;-6.356;2023-08-07T08:37:23;1.60;;;0.77;;
35530;SDS011;21637;53.352;-6.356;2023-08-07T08:39:50;1.98;;;0.65;;
35530;SDS011;21637;53.352;-6.356;2023-08-07T08:42:16;3.15;;;0.73;;
35530;SDS011;21637;53.352;-6.356;2023-08-07T08:44:55;2.65;;;0.80;;
35530;SDS011;21637;53.352;-6.356;2023-08-07T08:47:21;3.70;;;0.75;;
35530;SDS011;21637;53.352;-6.356;2023-08-07T08:49:54;2.38;;;0.90;;
35530;SDS011;21637;53.352;-6.356;2023-08-07T08:52:41;2.10;;;0.93;;
35530;SDS011;21637;53.352;-6.356;2023-08-07T08:55:10;1.10;;;0.63;;
35530;SDS011;21637;53.352;-6.356;2023-08-07T08:57:37;2.92;;;0.85;;
35530;SDS011;21637;53.352;-6.356;2023-08-07T09:00:04;1.55;;;1.10;;
35530;SDS011;21637;53.352;-6.356;2023-08-07T09:02:41;3.10;;;1.00;;
35530;SDS011;21637;53.352;-6.356;2023-08-07T09:05:08;5.03;;;1.10;;
35530;SDS011;21637;53.352;-6.356;2023-08-07T09:07:34;2.20;;;0.80;;
35530;SDS011;21637;53.352;-6.356;2023-08-07T09:10:01;3.53;;;0.98;;
35530;SDS011;21637;53.352;-6.356;2023-08-07T09:12:29;3.03;;;0.95;;
35530;SDS011;21637;53.352;-6.356;2023-08-07T09:14:57;2.15;;;1.63;;
35530;SDS011;21637;53.352;-6.356;2023-08-07T09:17:29;2.08;;;0.77;;
35530;SDS011;21637;53.352;-6.356;2023-08-07T09:19:59;4.38;;;0.82;;
35530;SDS011;21637;53.352;-6.356;2023-08-07T09:22:25;3.92;;;0.90;;
35530;SDS011;21637;53.352;-6.356;2023-08-07T09:24:51;0.77;;;0.50;;
35530;SDS011;21637;53.352;-6.356;2023-08-07T09:27:17;1.25;;;0.80;;
35530;SDS011;21637;53.352;-6.356;2023-08-07T09:29:43;1.25;;;0.52;;
35530;SDS011;21637;53.352;-6.356;2023-08-07T09:32:13;0.98;;;0.70;;
35530;SDS011;21637;53.352;-6.356;2023-08-07T09:34:39;1.27;;;0.60;;
35530;SDS011;21637;53.352;-6.356;2023-08-07T09:37:06;2.35;;;0.68;;
35530;SDS011;21637;53.352;-6.356;2023-08-07T09:39:33;1.33;;;0.70;;
35530;SDS011;21637;53.352;-6.356;2023-08-07T09:42:01;1.85;;;0.70;;
35530;SDS011;21637;53.352;-6.356;2023-08-07T09:44:34;0.80;;;0.52;;
35530;SDS011;21637;53.352;-6.356;2023-08-07T09:47:12;1.65;;;0.90;;
35530;SDS011;21637;53.352;-6.356;2023-08-07T09:49:39;2.88;;;0.70;;
35530;SDS011;21637;53.352;-6.356;2023-08-07T09:52:05;2.45;;;0.77;;
35530;SDS011;21637;53.352;-6.356;2023-08-07T09:54:35;1.25;;;0.63;;
35530;SDS011;21637;53.352;-6.356;2023-08-07T09:57:01;2.38;;;0.77;;
35530;SDS011;21637;53.352;-6.356;2023-08-07T09:59:28;1.65;;;0.80;;
35530;SDS011;21637;53.352;-6.356;2023-08-07T10:01:54;3.28;;;0.82;;
35530;SDS011;21637;53.352;-6.356;2023-08-07T10:04:23;1.77;;;0.60;;
35530;SDS011;21637;53.352;-6.356;2023-08-07T10:06:50;1.40;;;0.80;;
35530;SDS011;21637;53.352;-6.356;2023-08-07T10:09:16;1.23;;;0.60;;
35530;SDS011;21637;53.352;-6.356;2023-08-07T10:11:42;1.33;;;0.70;;
35530;SDS011;21637;53.352;-6.356;2023-08-07T10:14:08;2.70;;;0.70;;
35530;SDS011;21637;53.352;-6.356;2023-08-07T10:16:34;2.20;;;0.55;;
35530;SDS011;21637;53.352;-6.356;2023-08-07T10:19:05;1.67;;;0.63;;
35530;SDS011;21637;53.352;-6.356;2023-08-07T10:21:31;1.00;;;0.50;;
35530;SDS011;21637;53.352;-6.356;2023-08-07T10:24:01;1.38;;;0.60;;
35530;SDS011;21637;53.352;-6.356;2023-08-07T10:26:29;0.90;;;0.68;;
35530;SDS011;21637;53.352;-6.356;2023-08-07T10:28:58;1.90;;;0.55;;
35530;SDS011;21637;53.352;-6.356;2023-08-07T10:31:28;0.63;;;0.60;;
35530;SDS011;21637;53.352;-6.356;2023-08-07T10:33:55;0.63;;;0.63;;
35530;SDS011;21637;53.352;-6.356;2023-08-07T10:36:20;1.90;;;0.50;;
35530;SDS011;21637;53.352;-6.356;2023-08-07T10:38:49;0.77;;;0.40;;
35530;SDS011;21637;53.352;-6.356;2023-08-07T10:41:18;1.07;;;0.60;;
35530;SDS011;21637;53.352;-6.356;2023-08-07T10:43:45;1.55;;;0.70;;
35530;SDS011;21637;53.352;-6.356;2023-08-07T10:46:15;2.67;;;0.73;;
35530;SDS011;21637;53.352;-6.356;2023-08-07T10:48:44;3.30;;;0.70;;
35530;SDS011;21637;53.352;-6.356;2023-08-07T10:51:14;0.90;;;0.50;;
35530;SDS011;21637;53.352;-6.356;2023-08-07T10:53:47;1.30;;;0.57;;
35530;SDS011;21637;53.352;-6.356;2023-08-07T10:56:29;0.95;;;0.60;;
35530;SDS011;21637;53.352;-6.356;2023-08-07T10:59:07;1.92;;;0.90;;
35530;SDS011;21637;53.352;-6.356;2023-08-07T11:04:07;1.80;;;0.50;;
35530;SDS011;21637;53.352;-6.356;2023-08-07T11:06:40;1.23;;;0.70;;
35530;SDS011;21637;53.352;-6.356;2023-08-07T11:09:07;0.63;;;0.63;;
35530;SDS011;21637;53.352;-6.356;2023-08-07T11:11:40;2.20;;;0.93;;
35530;SDS011;21637;53.352;-6.356;2023-08-07T11:14:15;1.08;;;0.68;;
35530;SDS011;21637;53.352;-6.356;2023-08-07T11:16:42;1.15;;;0.77;;
35530;SDS011;21637;53.352;-6.356;2023-08-07T11:19:08;1.35;;;0.90;;
35530;SDS011;21637;53.352;-6.356;2023-08-07T11:21:34;1.92;;;0.65;;
35530;SDS011;21637;53.352;-6.356;2023-08-07T11:24:01;0.60;;;0.43;;
35530;SDS011;21637;53.352;-6.356;2023-08-07T11:26:27;1.08;;;0.57;;
35530;SDS011;21637;53.352;-6.356;2023-08-07T11:28:54;1.55;;;0.80;;
35530;SDS011;21637;53.352;-6.356;2023-08-07T11:31:20;3.72;;;1.00;;
35530;SDS011;21637;53.352;-6.356;2023-08-07T11:33:52;1.13;;;0.60;;
35530;SDS011;21637;53.352;-6.356;2023-08-07T11:36:20;1.77;;;0.63;;
35530;SDS011;21637;53.352;-6.356;2023-08-07T11:38:45;2.90;;;0.60;;
35530;SDS011;21637;53.352;-6.356;2023-08-07T11:41:12;2.15;;;0.60;;
35530;SDS011;21637;53.352;-6.356;2023-08-07T11:43:39;1.25;;;0.60;;
35530;SDS011;21637;53.352;-6.356;2023-08-07T11:46:06;2.15;;;0.73;;
35530;SDS011;21637;53.352;-6.356;2023-08-07T11:48:34;1.83;;;0.88;;
35530;SDS011;21637;53.352;-6.356;2023-08-07T11:51:02;1.95;;;0.82;;
35530;SDS011;21637;53.352;-6.356;2023-08-07T11:53:30;1.58;;;1.13;;
35530;SDS011;21637;53.352;-6.356;2023-08-07T11:55:58;1.25;;;0.90;;
35530;SDS011;21637;53.352;-6.356;2023-08-07T11:58:26;1.50;;;0.90;;
35530;SDS011;21637;53.352;-6.356;2023-08-07T12:00:53;2.13;;;0.85;;
35530;SDS011;21637;53.352;-6.356;2023-08-07T12:03:26;2.08;;;0.70;;
35530;SDS011;21637;53.352;-6.356;2023-08-07T12:05:55;2.25;;;0.70;;
35530;SDS011;21637;53.352;-6.356;2023-08-07T12:08:22;1.17;;;0.68;;
35530;SDS011;21637;53.352;-6.356;2023-08-07T12:10:54;2.40;;;1.15;;
35530;SDS011;21637;53.352;-6.356;2023-08-07T12:13:20;1.30;;;0.70;;
35530;SDS011;21637;53.352;-6.356;2023-08-07T12:15:51;1.83;;;0.90;;
35530;SDS011;21637;53.352;-6.356;2023-08-07T12:18:19;1.98;;;0.65;;
35530;SDS011;21637;53.352;-6.356;2023-08-07T12:20:46;2.03;;;0.68;;
35530;SDS011;21637;53.352;-6.356;2023-08-07T12:23:15;0.65;;;0.60;;
35530;SDS011;21637;53.352;-6.356;2023-08-07T12:25:41;1.17;;;0.50;;
35530;SDS011;21637;53.352;-6.356;2023-08-07T12:28:07;2.47;;;0.60;;
35530;SDS011;21637;53.352;-6.356;2023-08-07T12:30:34;0.93;;;0.52;;
35530;SDS011;21637;53.352;-6.356;2023-08-07T12:33:00;1.00;;;0.82;;
35530;SDS011;21637;53.352;-6.356;2023-08-07T12:35:27;1.65;;;0.70;;
35530;SDS011;21637;53.352;-6.356;2023-08-07T12:37:53;1.70;;;0.70;;
35530;SDS011;21637;53.352;-6.356;2023-08-07T12:40:19;1.63;;;0.73;;
35530;SDS011;21637;53.352;-6.356;2023-08-07T12:42:46;1.00;;;0.70;;
35530;SDS011;21637;53.352;-6.356;2023-08-07T12:45:13;1.30;;;0.75;;
35530;SDS011;21637;53.352;-6.356;2023-08-07T12:47:40;1.10;;;0.80;;
35530;SDS011;21637;53.352;-6.356;2023-08-07T12:50:10;1.20;;;0.77;;
35530;SDS011;21637;53.352;-6.356;2023-08-07T12:52:36;2.25;;;0.60;;
35530;SDS011;21637;53.352;-6.356;2023-08-07T12:55:01;0.73;;;0.60;;
35530;SDS011;21637;53.352;-6.356;2023-08-07T12:57:27;1.20;;;0.80;;
35530;SDS011;21637;53.352;-6.356;2023-08-07T12:59:53;1.77;;;0.90;;
35530;SDS011;21637;53.352;-6.356;2023-08-07T13:02:19;1.13;;;1.00;;
35530;SDS011;21637;53.352;-6.356;2023-08-07T13:04:44;1.20;;;0.90;;
35530;SDS011;21637;53.352;-6.356;2023-08-07T13:07:11;2.00;;;0.90;;
35530;SDS011;21637;53.352;-6.356;2023-08-07T13:09:37;0.98;;;0.73;;
35530;SDS011;21637;53.352;-6.356;2023-08-07T13:12:03;1.77;;;0.70;;
35530;SDS011;21637;53.352;-6.356;2023-08-07T13:14:29;2.03;;;0.90;;
35530;SDS011;21637;53.352;-6.356;2023-08-07T13:16:55;1.38;;;0.95;;
35530;SDS011;21637;53.352;-6.356;2023-08-07T13:19:20;2.22;;;1.08;;
35530;SDS011;21637;53.352;-6.356;2023-08-07T13:21:46;1.17;;;0.70;;
35530;SDS011;21637;53.352;-6.356;2023-08-07T13:24:12;2.40;;;1.05;;
35530;SDS011;21637;53.352;-6.356;2023-08-07T13:26:38;3.65;;;1.10;;
35530;SDS011;21637;53.352;-6.356;2023-08-07T13:29:10;1.33;;;0.93;;
35530;SDS011;21637;53.352;-6.356;2023-08-07T13:31:36;2.22;;;0.93;;
35530;SDS011;21637;53.352;-6.356;2023-08-07T13:34:02;1.10;;;0.90;;
35530;SDS011;21637;53.352;-6.356;2023-08-07T13:36:32;2.00;;;0.80;;
35530;SDS011;21637;53.352;-6.356;2023-08-07T13:38:59;1.60;;;0.90;;
35530;SDS011;21637;53.352;-6.356;2023-08-07T13:41:25;3.28;;;1.27;;
35530;SDS011;21637;53.352;-6.356;2023-08-07T13:43:51;1.27;;;0.90;;
35530;SDS011;21637;53.352;-6.356;2023-08-07T13:46:17;2.35;;;0.90;;
35530;SDS011;21637;53.352;-6.356;2023-08-07T13:48:44;0.85;;;0.82;;
35530;SDS011;21637;53.352;-6.356;2023-08-07T13:51:10;1.48;;;0.73;;
35530;SDS011;21637;53.352;-6.356;2023-08-07T13:53:36;4.53;;;1.35;;
35530;SDS011;21637;53.352;-6.356;2023-08-07T13:56:01;0.75;;;0.68;;
35530;SDS011;21637;53.352;-6.356;2023-08-07T13:58:28;1.52;;;0.80;;
35530;SDS011;21637;53.352;-6.356;2023-08-07T14:00:54;1.10;;;0.80;;
35530;SDS011;21637;53.352;-6.356;2023-08-07T14:03:21;0.82;;;0.82;;
35530;SDS011;21637;53.352;-6.356;2023-08-07T14:05:46;1.02;;;0.80;;
35530;SDS011;21637;53.352;-6.356;2023-08-07T14:08:13;1.60;;;0.90;;
35530;SDS011;21637;53.352;-6.356;2023-08-07T14:10:39;2.15;;;1.10;;
35530;SDS011;21637;53.352;-6.356;2023-08-07T14:13:06;3.40;;;1.10;;
35530;SDS011;21637;53.352;-6.356;2023-08-07T14:15:32;3.63;;;1.05;;
35530;SDS011;21637;53.352;-6.356;2023-08-07T14:17:57;1.58;;;1.10;;
35530;SDS011;21637;53.352;-6.356;2023-08-07T14:20:23;2.15;;;0.82;;
35530;SDS011;21637;53.352;-6.356;2023-08-07T14:22:50;2.95;;;0.70;;
35530;SDS011;21637;53.352;-6.356;2023-08-07T14:25:16;3.10;;;1.20;;
35530;SDS011;21637;53.352;-6.356;2023-08-07T14:27:42;2.00;;;0.93;;
35530;SDS011;21637;53.352;-6.356;2023-08-07T14:30:08;2.92;;;0.98;;
35530;SDS011;21637;53.352;-6.356;2023-08-07T14:32:34;1.52;;;1.27;;
35530;SDS011;21637;53.352;-6.356;2023-08-07T14:34:59;2.10;;;0.98;;
35530;SDS011;21637;53.352;-6.356;2023-08-07T14:37:25;1.65;;;0.98;;
35530;SDS011;21637;53.352;-6.356;2023-08-07T14:39:51;2.50;;;0.98;;
35530;SDS011;21637;53.352;-6.356;2023-08-07T14:42:16;2.17;;;1.58;;
35530;SDS011;21637;53.352;-6.356;2023-08-07T14:44:42;2.03;;;1.80;;
35530;SDS011;21637;53.352;-6.356;2023-08-07T14:47:08;3.00;;;1.65;;
35530;SDS011;21637;53.352;-6.356;2023-08-07T14:49:33;2.47;;;1.58;;